sensor_id;sensor_type;location;lat;lon;timestamp;pressure;altitude;pressure_sealevel;temperature;humidity
47218;BME280;47282;53.362;-2.222;2023-01-15T13:49:36;98649.74;;;8.41;76.73
47218;BME280;47282;53.362;-2.222;2023-01-15T13:52:07;98643.92;;;9.62;72.75
47218;BME280;47282;53.362;-2.222;2023-01-15T13:54:47;98641.47;;;10.56;69.97
47218;BME280;47282;53.362;-2.222;2023-01-15T13:57:23;98644.74;;;10.72;68.71
47218;BME280;47282;53.362;-2.222;2023-01-15T13:59:51;98644.57;;;10.11;69.85
47218;BME280;47282;53.362;-2.222;2023-01-15T14:02:24;98639.68;;;9.47;71.84
47218;BME280;47282;53.362;-2.222;2023-01-15T14:04:52;98641.85;;;8.88;73.22
47218;BME280;47282;53.362;-2.222;2023-01-15T14:07:29;98649.58;;;8.91;74.54
47218;BME280;47282;53.362;-2.222;2023-01-15T14:10:09;98642.37;;;7.61;76.31
47218;BME280;47282;53.362;-2.222;2023-01-15T14:12:56;98643.22;;;7.73;77.51
47218;BME280;47282;53.362;-2.222;2023-01-15T14:15:36;98637.55;;;7.55;78.23
47218;BME280;47282;53.362;-2.222;2023-01-15T14:18:16;98640.07;;;7.41;78.36
47218;BME280;47282;53.362;-2.222;2023-01-15T14:21:26;98639.78;;;6.97;79.33
47218;BME280;47282;53.362;-2.222;2023-01-15T14:24:09;98640.37;;;6.95;79.48
47218;BME280;47282;53.362;-2.222;2023-01-15T14:26:46;98640.66;;;7.15;79.82
47218;BME280;47282;53.362;-2.222;2023-01-15T14:29:44;98644.60;;;7.08;80.44
47218;BME280;47282;53.362;-2.222;2023-01-15T14:32:27;98645.99;;;7.50;81.18
47218;BME280;47282;53.362;-2.222;2023-01-15T14:35:00;98649.52;;;7.55;82.15
47218;BME280;47282;53.362;-2.222;2023-01-15T14:37:31;98649.55;;;6.94;83.18
47218;BME280;47282;53.362;-2.222;2023-01-15T14:40:03;98647.58;;;7.24;83.96
47218;BME280;47282;53.362;-2.222;2023-01-15T14:42:34;98647.39;;;6.56;84.13
47218;BME280;47282;53.362;-2.222;2023-01-15T14:45:06;98647.17;;;6.77;84.57
47218;BME280;47282;53.362;-2.222;2023-01-15T14:47:42;98648.70;;;6.26;84.40
47218;BME280;47282;53.362;-2.222;2023-01-15T14:50:43;98652.38;;;6.28;84.88
47218;BME280;47282;53.362;-2.222;2023-01-15T14:53:23;98652.82;;;6.21;84.93
47218;BME280;47282;53.362;-2.222;2023-01-15T14:55:55;98658.13;;;5.98;84.94
47218;BME280;47282;53.362;-2.222;2023-01-15T14:58:35;98659.33;;;5.56;85.48
47218;BME280;47282;53.362;-2.222;2023-01-15T15:01:13;98657.20;;;5.82;86.22
47218;BME280;47282;53.362;-2.222;2023-01-15T15:03:49;98654.67;;;5.64;86.55
47218;BME280;47282;53.362;-2.222;2023-01-15T15:06:18;98646.14;;;5.48;86.68
47218;BME280;47282;53.362;-2.222;2023-01-15T15:08:49;98657.71;;;5.33;86.40
47218;BME280;47282;53.362;-2.222;2023-01-15T15:11:24;98659.68;;;5.17;86.54
47218;BME280;47282;53.362;-2.222;2023-01-15T15:13:56;98655.47;;;5.04;86.49
47218;BME280;47282;53.362;-2.222;2023-01-15T15:16:25;98655.64;;;5.22;86.57
47218;BME280;47282;53.362;-2.222;2023-01-15T15:18:58;98658.98;;;4.90;86.66
47218;BME280;47282;53.362;-2.222;2023-01-15T15:21:28;98655.26;;;4.87;86.53
47218;BME280;47282;53.362;-2.222;2023-01-15T15:24:02;98652.99;;;4.79;86.54
47218;BME280;47282;53.362;-2.222;2023-01-15T15:26:33;98652.60;;;4.73;86.79
47218;BME280;47282;53.362;-2.222;2023-01-15T15:29:03;98658.89;;;4.71;86.74
47218;BME280;47282;53.362;-2.222;2023-01-15T15:31:34;98655.00;;;4.98;86.25
47218;BME280;47282;53.362;-2.222;2023-01-15T15:34:03;98652.84;;;4.74;85.93
47218;BME280;47282;53.362;-2.222;2023-01-15T15:36:35;98650.41;;;4.76;85.74
47218;BME280;47282;53.362;-2.222;2023-01-15T15:39:15;98651.33;;;4.70;85.68
47218;BME280;47282;53.362;-2.222;2023-01-15T15:41:47;98651.43;;;4.63;85.91
47218;BME280;47282;53.362;-2.222;2023-01-15T15:44:27;98647.67;;;4.60;86.37
47218;BME280;47282;53.362;-2.222;2023-01-15T15:46:57;98639.97;;;4.70;86.28
47218;BME280;47282;53.362;-2.222;2023-01-15T15:49:25;98639.05;;;4.68;85.83
47218;BME280;47282;53.362;-2.222;2023-01-15T15:51:53;98633.86;;;4.53;85.43
47218;BME280;47282;53.362;-2.222;2023-01-15T15:54:22;98629.77;;;4.36;85.18
47218;BME280;47282;53.362;-2.222;2023-01-15T15:56:55;98628.21;;;4.17;85.01
47218;BME280;47282;53.362;-2.222;2023-01-15T15:59:30;98619.41;;;3.99;84.94
47218;BME280;47282;53.362;-2.222;2023-01-15T16:02:09;98616.36;;;4.29;84.87
47218;BME280;47282;53.362;-2.222;2023-01-15T16:04:44;98615.13;;;3.89;84.81
47218;BME280;47282;53.362;-2.222;2023-01-15T16:07:13;98612.10;;;3.70;84.84
47218;BME280;47282;53.362;-2.222;2023-01-15T16:09:47;98612.43;;;3.77;84.87
47218;BME280;47282;53.362;-2.222;2023-01-15T16:12:16;98608.80;;;3.61;84.95
47218;BME280;47282;53.362;-2.222;2023-01-15T16:14:45;98606.14;;;3.46;85.15
47218;BME280;47282;53.362;-2.222;2023-01-15T16:17:14;98610.34;;;3.53;85.12
47218;BME280;47282;53.362;-2.222;2023-01-15T16:19:42;98612.02;;;3.15;84.81
47218;BME280;47282;53.362;-2.222;2023-01-15T16:22:15;98615.08;;;3.19;84.91
47218;BME280;47282;53.362;-2.222;2023-01-15T16:24:53;98615.60;;;3.03;84.80
47218;BME280;47282;53.362;-2.222;2023-01-15T16:27:21;98615.15;;;2.86;84.77
47218;BME280;47282;53.362;-2.222;2023-01-15T16:29:51;98613.61;;;2.48;84.97
47218;BME280;47282;53.362;-2.222;2023-01-15T16:32:23;98613.06;;;2.63;86.05
47218;BME280;47282;53.362;-2.222;2023-01-15T16:34:59;98610.57;;;2.91;87.49
47218;BME280;47282;53.362;-2.222;2023-01-15T16:37:31;98608.72;;;2.71;88.65
47218;BME280;47282;53.362;-2.222;2023-01-15T16:40:03;98606.20;;;2.75;88.95
47218;BME280;47282;53.362;-2.222;2023-01-15T16:42:34;98605.16;;;3.03;89.16
47218;BME280;47282;53.362;-2.222;2023-01-15T16:45:05;98600.63;;;2.75;89.04
47218;BME280;47282;53.362;-2.222;2023-01-15T16:47:38;98592.68;;;3.01;89.28
47218;BME280;47282;53.362;-2.222;2023-01-15T16:50:39;98591.77;;;3.02;89.55
47218;BME280;47282;53.362;-2.222;2023-01-15T16:53:30;98592.35;;;3.04;90.02
47218;BME280;47282;53.362;-2.222;2023-01-15T16:55:59;98586.76;;;2.59;90.40
47218;BME280;47282;53.362;-2.222;2023-01-15T16:58:36;98586.91;;;2.84;90.60
47218;BME280;47282;53.362;-2.222;2023-01-15T17:01:38;98578.60;;;2.85;90.36
47218;BME280;47282;53.362;-2.222;2023-01-15T17:04:17;98576.39;;;2.86;90.15
47218;BME280;47282;53.362;-2.222;2023-01-15T17:06:55;98573.57;;;2.84;89.93
47218;BME280;47282;53.362;-2.222;2023-01-15T17:09:23;98570.05;;;2.79;89.56
47218;BME280;47282;53.362;-2.222;2023-01-15T17:11:52;98570.42;;;3.00;89.12
47218;BME280;47282;53.362;-2.222;2023-01-15T17:14:22;98564.71;;;2.67;89.12
47218;BME280;47282;53.362;-2.222;2023-01-15T17:17:14;98560.51;;;2.62;89.16
47218;BME280;47282;53.362;-2.222;2023-01-15T17:19:43;98554.98;;;2.58;89.19
47218;BME280;47282;53.362;-2.222;2023-01-15T17:22:14;98555.86;;;2.82;89.09
47218;BME280;47282;53.362;-2.222;2023-01-15T17:24:47;98552.75;;;2.76;88.73
47218;BME280;47282;53.362;-2.222;2023-01-15T17:27:15;98549.52;;;2.69;88.33
47218;BME280;47282;53.362;-2.222;2023-01-15T17:29:43;98546.55;;;2.62;88.00
47218;BME280;47282;53.362;-2.222;2023-01-15T17:32:13;98543.07;;;2.53;87.70
47218;BME280;47282;53.362;-2.222;2023-01-15T17:34:42;98542.86;;;2.44;87.60
47218;BME280;47282;53.362;-2.222;2023-01-15T17:37:10;98539.49;;;2.38;87.79
47218;BME280;47282;53.362;-2.222;2023-01-15T17:39:38;98533.55;;;2.35;88.26
47218;BME280;47282;53.362;-2.222;2023-01-15T17:42:12;98531.95;;;2.35;88.81
47218;BME280;47282;53.362;-2.222;2023-01-15T17:44:40;98528.09;;;2.38;89.41
47218;BME280;47282;53.362;-2.222;2023-01-15T17:47:09;98526.23;;;2.68;89.87
47218;BME280;47282;53.362;-2.222;2023-01-15T17:49:37;98523.99;;;2.50;90.02
47218;BME280;47282;53.362;-2.222;2023-01-15T17:52:10;98528.29;;;2.52;89.93
47218;BME280;47282;53.362;-2.222;2023-01-15T17:54:40;98527.37;;;2.54;89.89
47218;BME280;47282;53.362;-2.222;2023-01-15T17:57:08;98524.99;;;2.59;89.91
47218;BME280;47282;53.362;-2.222;2023-01-15T17:59:36;98525.39;;;2.82;89.98
47218;BME280;47282;53.362;-2.222;2023-01-15T18:02:11;98526.13;;;2.62;89.93
47218;BME280;47282;53.362;-2.222;2023-01-15T18:04:44;98524.48;;;2.63;89.78
47218;BME280;47282;53.362;-2.222;2023-01-15T18:07:14;98520.24;;;2.62;89.64
47218;BME280;47282;53.362;-2.222;2023-01-15T18:09:44;98516.27;;;2.60;89.48
47218;BME280;47282;53.362;-2.222;2023-01-15T18:12:13;98516.32;;;2.59;89.43
47218;BME280;47282;53.362;-2.222;2023-01-15T18:14:41;98514.58;;;2.58;89.50
47218;BME280;47282;53.362;-2.222;2023-01-15T18:17:09;98515.60;;;2.80;89.72
47218;BME280;47282;53.362;-2.222;2023-01-15T18:19:37;98515.12;;;2.11;89.86
47218;BME280;47282;53.362;-2.222;2023-01-15T18:22:05;98515.28;;;2.60;89.91
47218;BME280;47282;53.362;-2.222;2023-01-15T18:24:33;98510.40;;;2.59;89.60
47218;BME280;47282;53.362;-2.222;2023-01-15T18:27:01;98504.69;;;2.76;89.26
47218;BME280;47282;53.362;-2.222;2023-01-15T18:29:29;98503.78;;;2.21;88.97
47218;BME280;47282;53.362;-2.222;2023-01-15T18:31:57;98497.10;;;2.41;88.90
47218;BME280;47282;53.362;-2.222;2023-01-15T18:34:26;98493.72;;;2.35;88.88
47218;BME280;47282;53.362;-2.222;2023-01-15T18:36:54;98493.06;;;2.31;88.88
47218;BME280;47282;53.362;-2.222;2023-01-15T18:39:22;98492.81;;;2.27;88.77
47218;BME280;47282;53.362;-2.222;2023-01-15T18:41:50;98488.27;;;2.22;88.80
47218;BME280;47282;53.362;-2.222;2023-01-15T18:44:20;98489.06;;;2.20;89.05
47218;BME280;47282;53.362;-2.222;2023-01-15T18:46:50;98489.81;;;2.19;89.43
47218;BME280;47282;53.362;-2.222;2023-01-15T18:49:19;98490.52;;;2.45;89.88
47218;BME280;47282;53.362;-2.222;2023-01-15T18:51:47;98484.51;;;2.26;90.18
47218;BME280;47282;53.362;-2.222;2023-01-15T18:54:15;98480.43;;;2.31;90.33
47218;BME280;47282;53.362;-2.222;2023-01-15T18:56:43;98476.01;;;2.35;90.47
47218;BME280;47282;53.362;-2.222;2023-01-15T18:59:12;98472.72;;;2.41;90.52
47218;BME280;47282;53.362;-2.222;2023-01-15T19:01:41;98470.68;;;2.46;90.53
47218;BME280;47282;53.362;-2.222;2023-01-15T19:04:09;98465.88;;;2.49;90.53
47218;BME280;47282;53.362;-2.222;2023-01-15T19:06:38;98453.48;;;2.51;90.47
47218;BME280;47282;53.362;-2.222;2023-01-15T19:09:07;98449.36;;;2.74;90.31
47218;BME280;47282;53.362;-2.222;2023-01-15T19:11:36;98445.08;;;2.51;90.07
47218;BME280;47282;53.362;-2.222;2023-01-15T19:14:04;98439.17;;;2.48;89.65
47218;BME280;47282;53.362;-2.222;2023-01-15T19:16:32;98433.19;;;2.16;89.09
47218;BME280;47282;53.362;-2.222;2023-01-15T19:19:00;98428.68;;;2.34;88.50
47218;BME280;47282;53.362;-2.222;2023-01-15T19:21:28;98423.69;;;2.24;88.01
47218;BME280;47282;53.362;-2.222;2023-01-15T19:23:56;98420.06;;;2.13;87.66
47218;BME280;47282;53.362;-2.222;2023-01-15T19:26:24;98415.16;;;2.04;87.44
47218;BME280;47282;53.362;-2.222;2023-01-15T19:28:52;98408.32;;;2.42;87.34
47218;BME280;47282;53.362;-2.222;2023-01-15T19:31:20;98405.70;;;2.06;87.28
47218;BME280;47282;53.362;-2.222;2023-01-15T19:33:48;98399.42;;;1.99;87.24
47218;BME280;47282;53.362;-2.222;2023-01-15T19:36:16;98395.40;;;1.91;87.09
47218;BME280;47282;53.362;-2.222;2023-01-15T19:38:44;98397.70;;;1.82;86.95
47218;BME280;47282;53.362;-2.222;2023-01-15T19:41:12;98400.17;;;1.75;86.90
47218;BME280;47282;53.362;-2.222;2023-01-15T19:43:40;98399.43;;;1.94;86.85
47218;BME280;47282;53.362;-2.222;2023-01-15T19:46:08;98395.99;;;1.59;86.77
47218;BME280;47282;53.362;-2.222;2023-01-15T19:48:36;98393.12;;;1.80;86.73
47218;BME280;47282;53.362;-2.222;2023-01-15T19:51:05;98387.12;;;1.74;86.71
47218;BME280;47282;53.362;-2.222;2023-01-15T19:53:33;98381.14;;;1.67;86.58
47218;BME280;47282;53.362;-2.222;2023-01-15T19:56:02;98379.02;;;1.34;86.59
47218;BME280;47282;53.362;-2.222;2023-01-15T19:58:31;98378.30;;;1.56;86.54
47218;BME280;47282;53.362;-2.222;2023-01-15T20:01:00;98372.33;;;1.50;86.63
47218;BME280;47282;53.362;-2.222;2023-01-15T20:03:28;98369.55;;;1.46;86.78
47218;BME280;47282;53.362;-2.222;2023-01-15T20:05:56;98371.56;;;1.42;86.86
47218;BME280;47282;53.362;-2.222;2023-01-15T20:08:24;98370.47;;;1.40;87.02
47218;BME280;47282;53.362;-2.222;2023-01-15T20:10:52;98369.87;;;1.10;87.08
47218;BME280;47282;53.362;-2.222;2023-01-15T20:13:22;98367.23;;;1.35;87.24
47218;BME280;47282;53.362;-2.222;2023-01-15T20:15:50;98363.88;;;1.35;87.44
47218;BME280;47282;53.362;-2.222;2023-01-15T20:18:18;98366.19;;;1.35;87.73
47218;BME280;47282;53.362;-2.222;2023-01-15T20:20:46;98364.07;;;1.36;87.97
47218;BME280;47282;53.362;-2.222;2023-01-15T20:23:14;98363.15;;;1.39;88.28
47218;BME280;47282;53.362;-2.222;2023-01-15T20:25:42;98357.30;;;1.16;88.53
47218;BME280;47282;53.362;-2.222;2023-01-15T20:28:10;98354.87;;;1.44;88.71
47218;BME280;47282;53.362;-2.222;2023-01-15T20:30:39;98350.69;;;1.48;88.79
47218;BME280;47282;53.362;-2.222;2023-01-15T20:33:08;98345.85;;;1.75;88.85
47218;BME280;47282;53.362;-2.222;2023-01-15T20:35:36;98345.14;;;1.08;88.89
47218;BME280;47282;53.362;-2.222;2023-01-15T20:38:04;98340.28;;;1.10;88.87
47218;BME280;47282;53.362;-2.222;2023-01-15T20:40:32;98333.79;;;1.61;88.77
47218;BME280;47282;53.362;-2.222;2023-01-15T20:43:00;98328.58;;;1.61;88.48
47218;BME280;47282;53.362;-2.222;2023-01-15T20:45:28;98329.56;;;1.62;88.23
47218;BME280;47282;53.362;-2.222;2023-01-15T20:47:56;98326.96;;;1.34;88.03
47218;BME280;47282;53.362;-2.222;2023-01-15T20:50:27;98323.24;;;1.34;87.93
47218;BME280;47282;53.362;-2.222;2023-01-15T20:52:56;98319.77;;;1.61;87.81
47218;BME280;47282;53.362;-2.222;2023-01-15T20:55:25;98314.43;;;1.60;87.76
